createdAt,value
2018-03-16T00:00:28.456Z,57.40
2018-03-16T00:01:27.555Z,53.70
2018-03-16T00:02:27.923Z,54.00
2018-03-16T00:03:28.485Z,51.40
2018-03-16T00:04:27.627Z,50.10
2018-03-16T00:05:27.708Z,56.10
2018-03-16T00:06:28.223Z,56.80
2018-03-16T00:07:28.641Z,56.40
2018-03-16T00:08:27.589Z,53.90
2018-03-16T00:09:28.079Z,56.30
2018-03-16T00:10:27.405Z,59.20
2018-03-16T00:11:27.399Z,51.80
2018-03-16T00:12:27.441Z,57.90
2018-03-16T00:13:27.913Z,53.90
2018-03-16T00:14:50.263Z,61.20
2018-03-16T00:15:50.883Z,53.60
2018-03-16T00:16:51.467Z,57.90
2018-03-16T00:17:50.981Z,54.10
2018-03-16T00:18:51.302Z,52.50
2018-03-16T00:19:50.780Z,55.90
2018-03-16T00:20:51.477Z,55.60
2018-03-16T00:21:51.078Z,58.80
2018-03-16T00:22:50.717Z,56.60
2018-03-16T00:23:51.449Z,57.30
2018-03-16T00:24:50.696Z,61.20
2018-03-16T00:25:51.265Z,57.90
2018-03-16T00:26:50.057Z,57.50
2018-03-16T00:27:50.338Z,56.90
2018-03-16T00:28:50.711Z,57.50
2018-03-16T00:29:51.044Z,57.00
2018-03-16T00:30:51.592Z,56.50
2018-03-16T00:31:50.661Z,62.40
2018-03-16T00:32:50.727Z,55.40
2018-03-16T00:34:12.997Z,56.30
2018-03-16T00:35:12.805Z,57.00
2018-03-16T00:36:35.565Z,59.50
2018-03-16T00:37:35.764Z,54.70
2018-03-16T00:38:35.845Z,57.40
2018-03-16T00:39:58.922Z,59.50
2018-03-16T00:41:20.820Z,55.60
2018-03-16T00:42:44.126Z,58.30
2018-03-16T00:44:07.065Z,58.20
2018-03-16T00:45:07.485Z,57.30
2018-03-16T00:46:07.403Z,54.50
2018-03-16T00:47:07.554Z,54.20
2018-03-16T00:48:08.229Z,56.70
2018-03-16T00:49:07.565Z,64.50
2018-03-16T00:50:08.048Z,60.20
2018-03-16T00:51:06.776Z,57.90
2018-03-16T00:52:07.263Z,57.50
2018-03-16T00:53:07.222Z,57.50
2018-03-16T00:54:07.613Z,61.60
2018-03-16T00:55:07.534Z,62.00
2018-03-16T00:56:07.832Z,62.50
2018-03-16T00:57:06.607Z,58.30
2018-03-16T00:58:07.462Z,63.10
2018-03-16T00:59:30.709Z,0.00
2018-03-16T01:00:32.197Z,60.30
2018-03-16T01:01:31.718Z,59.10
2018-03-16T01:02:31.588Z,58.80
2018-03-16T01:03:32.064Z,61.20
2018-03-16T01:04:31.621Z,60.90
2018-03-16T01:05:31.507Z,60.00
2018-03-16T01:06:31.345Z,59.60
2018-03-16T01:07:31.735Z,58.90
2018-03-16T01:08:53.864Z,62.70
2018-03-16T01:09:54.213Z,67.20
2018-03-16T01:10:54.253Z,65.20
2018-03-16T01:11:54.049Z,61.40
2018-03-16T01:12:53.928Z,56.70
2018-03-16T01:14:15.844Z,67.70
2018-03-16T01:15:17.325Z,65.30
2018-03-16T01:16:16.910Z,61.00
2018-03-16T01:17:16.742Z,61.80
2018-03-16T01:18:38.768Z,59.70
2018-03-16T01:19:39.703Z,60.40
2018-03-16T01:21:02.152Z,65.30
2018-03-16T01:22:02.522Z,62.80
2018-03-16T01:23:02.247Z,63.20
2018-03-16T01:24:02.438Z,60.80
2018-03-16T01:25:02.228Z,64.20
2018-03-16T01:26:24.121Z,62.00
2018-03-16T01:27:24.339Z,62.20
2018-03-16T01:28:24.692Z,63.60
2018-03-16T01:29:24.152Z,62.20
2018-03-16T01:30:24.617Z,60.40
2018-03-16T01:31:24.995Z,63.80
2018-03-16T01:32:24.557Z,60.90
2018-03-16T01:33:24.702Z,63.80
2018-03-16T01:34:25.167Z,64.60
2018-03-16T01:35:46.547Z,65.70
2018-03-16T01:36:46.420Z,61.30
2018-03-16T01:37:46.846Z,59.80
2018-03-16T01:39:09.036Z,61.60
2018-03-16T01:40:09.190Z,66.00
2018-03-16T01:41:31.764Z,66.50
2018-03-16T01:42:32.191Z,60.80
2018-03-16T01:43:32.742Z,62.50
2018-03-16T01:44:54.423Z,60.80
2018-03-16T01:45:54.891Z,65.20
2018-03-16T01:46:54.815Z,66.10
2018-03-16T01:47:55.296Z,62.10
2018-03-16T01:48:54.754Z,58.30
2018-03-16T01:49:55.070Z,63.90
2018-03-16T01:50:54.603Z,63.30
2018-03-16T01:51:55.106Z,64.90
2018-03-16T01:52:54.560Z,66.60
2018-03-16T01:53:54.954Z,61.40
2018-03-16T01:54:55.372Z,64.50
2018-03-16T01:55:54.686Z,61.80
2018-03-16T01:56:54.540Z,62.20
2018-03-16T01:57:54.765Z,62.40
2018-03-16T01:58:55.032Z,60.20
2018-03-16T01:59:54.619Z,64.80
2018-03-16T02:00:54.895Z,59.40
2018-03-16T02:02:17.135Z,58.00
2018-03-16T02:03:17.975Z,59.60
2018-03-16T02:04:39.692Z,66.10
2018-03-16T02:05:41.030Z,62.00
2018-03-16T02:07:02.980Z,61.70
2018-03-16T02:08:03.403Z,60.80
2018-03-16T02:09:03.123Z,61.40
2018-03-16T02:10:03.594Z,62.40
2018-03-16T02:11:03.108Z,63.40
2018-03-16T02:12:25.484Z,62.30
2018-03-16T02:13:25.292Z,61.60
2018-03-16T02:14:25.501Z,64.30
2018-03-16T02:15:25.950Z,62.50
2018-03-16T02:16:26.322Z,61.50
2018-03-16T02:17:25.055Z,65.40
2018-03-16T02:18:24.877Z,62.00
2018-03-16T02:19:26.115Z,63.90
2018-03-16T02:20:25.566Z,64.40
2018-03-16T02:21:26.071Z,62.20
2018-03-16T02:22:26.524Z,62.90
2018-03-16T02:23:25.852Z,61.00
2018-03-16T02:24:26.283Z,65.50
2018-03-16T02:25:25.637Z,60.50
2018-03-16T02:26:25.788Z,61.10
2018-03-16T02:27:25.578Z,60.30
2018-03-16T02:28:26.112Z,64.40
2018-03-16T02:29:26.391Z,59.90
2018-03-16T02:30:25.481Z,64.70
2018-03-16T02:31:25.457Z,60.80
2018-03-16T02:32:26.026Z,58.70
2018-03-16T02:33:25.410Z,68.90
2018-03-16T02:34:26.057Z,59.80
2018-03-16T02:35:26.179Z,61.30
2018-03-16T02:36:25.428Z,62.60
2018-03-16T02:37:25.281Z,65.50
2018-03-16T02:38:25.757Z,62.40
2018-03-16T02:39:25.986Z,62.80
2018-03-16T02:40:24.960Z,65.50
2018-03-16T02:41:24.925Z,67.90
2018-03-16T02:42:26.463Z,61.80
2018-03-16T02:43:25.928Z,64.40
2018-03-16T02:44:25.648Z,62.10
2018-03-16T02:45:26.062Z,65.70
2018-03-16T02:46:25.122Z,67.30
2018-03-16T02:48:10.304Z,65.90
2018-03-16T02:49:10.698Z,68.00
2018-03-16T02:50:11.305Z,70.50
2018-03-16T02:51:10.322Z,59.40
2018-03-16T02:52:10.860Z,62.90
2018-03-16T02:53:11.405Z,63.70
2018-03-16T02:54:10.075Z,60.40
2018-03-16T02:55:09.915Z,62.70
2018-03-16T02:56:10.086Z,61.70
2018-03-16T02:57:32.077Z,63.60
2018-03-16T02:58:32.568Z,67.10
2018-03-16T02:59:32.198Z,61.80
2018-03-16T03:00:32.183Z,57.40
2018-03-16T03:01:32.582Z,63.50
2018-03-16T03:02:33.006Z,61.50
2018-03-16T03:03:32.756Z,60.10
2018-03-16T03:04:32.572Z,60.00
2018-03-16T03:05:33.004Z,60.80
2018-03-16T03:06:32.558Z,60.90
2018-03-16T03:07:32.277Z,63.70
2018-03-16T03:08:32.681Z,67.80
2018-03-16T03:09:32.870Z,65.60
2018-03-16T03:10:32.479Z,61.30
2018-03-16T03:11:31.927Z,62.60
2018-03-16T03:12:31.718Z,67.30
2018-03-16T03:13:32.259Z,62.20
2018-03-16T03:14:32.758Z,62.80
2018-03-16T03:15:32.084Z,65.20
2018-03-16T03:16:32.498Z,63.00
2018-03-16T03:17:33.139Z,68.40
2018-03-16T03:18:32.592Z,67.00
2018-03-16T03:19:32.484Z,65.80
2018-03-16T03:20:32.936Z,64.30
2018-03-16T03:21:31.698Z,59.70
2018-03-16T03:22:32.038Z,64.30
2018-03-16T03:23:32.462Z,59.30
2018-03-16T03:24:54.162Z,65.70
2018-03-16T03:25:55.692Z,71.10
2018-03-16T03:26:54.713Z,60.70
2018-03-16T03:27:54.621Z,64.10
2018-03-16T03:28:54.443Z,60.80
2018-03-16T03:29:54.956Z,73.20
2018-03-16T03:30:55.451Z,63.70
2018-03-16T03:31:54.842Z,66.50
2018-03-16T03:32:55.275Z,66.20
2018-03-16T03:33:55.375Z,68.90
2018-03-16T03:34:55.452Z,61.60
2018-03-16T03:35:54.422Z,64.40
2018-03-16T03:36:54.858Z,66.60
2018-03-16T03:37:55.097Z,64.80
2018-03-16T03:39:17.529Z,68.30
2018-03-16T03:41:02.696Z,64.90
2018-03-16T03:42:02.993Z,67.10
2018-03-16T03:43:03.459Z,65.60
2018-03-16T03:44:02.720Z,65.60
2018-03-16T03:45:03.234Z,72.20
2018-03-16T03:46:03.608Z,68.10
2018-03-16T03:47:02.226Z,70.40
2018-03-16T03:48:02.694Z,63.30
2018-03-16T03:49:02.984Z,67.90
2018-03-16T03:50:03.183Z,67.40
2018-03-16T03:51:03.041Z,64.20
2018-03-16T03:52:24.967Z,71.30
2018-03-16T03:53:25.735Z,65.20
2018-03-16T03:54:26.072Z,67.00
2018-03-16T03:55:26.379Z,69.80
2018-03-16T03:56:25.657Z,66.10
2018-03-16T03:57:26.115Z,63.80
2018-03-16T03:58:26.302Z,65.00
2018-03-16T03:59:25.811Z,64.90
2018-03-16T04:00:26.249Z,68.40
2018-03-16T04:01:25.444Z,67.40
2018-03-16T04:02:26.107Z,62.10
2018-03-16T04:03:26.034Z,69.20
2018-03-16T04:04:26.310Z,68.90
2018-03-16T04:05:25.684Z,64.60
2018-03-16T04:06:26.288Z,65.60
2018-03-16T04:07:24.954Z,67.30
2018-03-16T04:08:26.508Z,70.70
2018-03-16T04:09:25.270Z,67.90
2018-03-16T04:10:25.411Z,66.80
2018-03-16T04:11:47.583Z,63.10
2018-03-16T04:12:48.143Z,68.20
2018-03-16T04:13:47.651Z,64.20
2018-03-16T04:14:47.988Z,66.30
2018-03-16T04:15:48.507Z,68.00
2018-03-16T04:16:48.137Z,66.80
2018-03-16T04:17:47.460Z,66.30
2018-03-16T04:18:47.787Z,67.60
2018-03-16T04:19:48.229Z,67.10
2018-03-16T04:20:47.697Z,69.60
2018-03-16T04:21:48.029Z,67.80
2018-03-16T04:22:48.375Z,68.70
2018-03-16T04:23:47.626Z,66.50
2018-03-16T04:24:47.682Z,64.00
2018-03-16T04:25:47.430Z,66.20
2018-03-16T04:26:47.905Z,65.60
2018-03-16T04:27:48.516Z,69.80
2018-03-16T04:28:47.593Z,64.50
2018-03-16T04:29:47.778Z,68.40
2018-03-16T04:31:10.860Z,69.40
2018-03-16T04:32:33.879Z,61.10
2018-03-16T04:33:33.659Z,71.30
2018-03-16T04:34:57.030Z,67.30
2018-03-16T04:35:57.237Z,73.40
2018-03-16T04:36:57.655Z,62.50
2018-03-16T04:37:57.102Z,69.50
2018-03-16T04:38:56.982Z,72.90
2018-03-16T04:39:56.620Z,65.80
2018-03-16T04:40:57.118Z,71.80
2018-03-16T04:41:56.840Z,69.90
2018-03-16T04:42:57.491Z,65.50
2018-03-16T04:43:56.784Z,68.70
2018-03-16T04:44:57.438Z,66.30
2018-03-16T04:45:56.888Z,67.90
2018-03-16T04:46:57.320Z,66.20
2018-03-16T04:48:20.131Z,64.20
2018-03-16T04:49:19.918Z,71.20
2018-03-16T04:50:20.645Z,65.70
2018-03-16T04:51:20.540Z,70.40
2018-03-16T04:52:21.072Z,73.40
2018-03-16T04:53:20.602Z,71.40
2018-03-16T04:54:42.626Z,69.30
2018-03-16T04:55:43.961Z,70.00
2018-03-16T04:57:05.955Z,75.20
2018-03-16T04:58:06.708Z,71.10
2018-03-16T04:59:05.790Z,70.50
2018-03-16T05:00:06.268Z,75.50
2018-03-16T05:01:06.198Z,67.50
2018-03-16T05:02:06.029Z,67.00
2018-03-16T05:03:06.405Z,70.20
2018-03-16T05:04:05.276Z,69.20
2018-03-16T05:05:06.049Z,66.50
2018-03-16T05:06:06.221Z,67.60
2018-03-16T05:07:06.095Z,68.30
2018-03-16T05:08:06.600Z,73.20
2018-03-16T05:09:05.942Z,67.20
2018-03-16T05:10:06.030Z,74.00
2018-03-16T05:11:07.101Z,66.90
2018-03-16T05:12:05.951Z,68.60
2018-03-16T05:13:28.271Z,70.90
2018-03-16T05:14:29.536Z,75.50
2018-03-16T05:15:29.018Z,70.90
2018-03-16T05:16:28.841Z,74.80
2018-03-16T05:17:28.839Z,77.00
2018-03-16T05:18:28.694Z,73.50
2018-03-16T05:19:28.398Z,78.30
2018-03-16T05:20:29.610Z,73.90
2018-03-16T05:21:28.493Z,75.30
2018-03-16T05:22:29.905Z,81.90
2018-03-16T05:23:31.806Z,77.90
2018-03-16T05:24:29.023Z,82.20
2018-03-16T05:25:29.382Z,78.10
2018-03-16T05:26:29.510Z,75.80
2018-03-16T05:27:29.827Z,78.50
2018-03-16T05:28:29.243Z,83.60
2018-03-16T05:29:29.663Z,84.80
2018-03-16T05:30:28.634Z,79.90
2018-03-16T05:31:28.274Z,90.20
2018-03-16T05:32:29.749Z,91.90
2018-03-16T05:33:29.048Z,91.90
2018-03-16T05:34:51.475Z,98.00
2018-03-16T05:35:52.059Z,88.70
2018-03-16T05:36:52.500Z,101.20
2018-03-16T05:37:52.415Z,100.00
2018-03-16T05:38:51.075Z,103.60
2018-03-16T05:39:51.793Z,99.10
2018-03-16T05:40:52.208Z,100.00
2018-03-16T05:41:51.433Z,96.00
2018-03-16T05:42:52.112Z,94.90
2018-03-16T05:43:51.508Z,86.20
2018-03-16T05:44:51.761Z,99.00
2018-03-16T05:45:51.711Z,87.40
2018-03-16T05:46:52.050Z,89.40
2018-03-16T05:47:51.091Z,105.50
2018-03-16T05:48:51.829Z,100.40
2018-03-16T05:49:51.733Z,92.80
2018-03-16T05:50:51.531Z,102.70
2018-03-16T05:51:52.077Z,99.00
2018-03-16T05:52:51.860Z,100.00
2018-03-16T05:53:52.312Z,99.30
2018-03-16T05:55:14.009Z,102.50
2018-03-16T05:56:14.733Z,96.50
2018-03-16T05:57:14.477Z,94.50
2018-03-16T05:58:15.070Z,98.00
2018-03-16T05:59:14.611Z,99.60
2018-03-16T06:00:14.918Z,97.50
2018-03-16T06:01:14.663Z,96.50
2018-03-16T06:02:14.503Z,96.40
2018-03-16T06:03:37.420Z,93.80
2018-03-16T06:05:00.292Z,97.60
2018-03-16T06:06:00.674Z,96.50
2018-03-16T06:07:00.303Z,99.20
2018-03-16T06:08:00.265Z,100.10
2018-03-16T06:09:00.109Z,103.70
2018-03-16T06:10:00.660Z,94.90
2018-03-16T06:11:00.815Z,100.90
2018-03-16T06:11:59.782Z,104.50
2018-03-16T06:12:59.868Z,94.90
2018-03-16T06:14:00.746Z,93.50
2018-03-16T06:15:00.356Z,96.90
2018-03-16T06:16:00.924Z,101.70
2018-03-16T06:17:00.706Z,101.30
2018-03-16T06:18:00.314Z,90.90
2018-03-16T06:19:00.996Z,99.30
2018-03-16T06:20:00.652Z,89.50
2018-03-16T06:21:00.090Z,89.60
2018-03-16T06:22:00.774Z,88.80
2018-03-16T06:23:22.405Z,89.00
2018-03-16T06:24:22.969Z,99.10
2018-03-16T06:25:23.181Z,95.90
2018-03-16T06:26:22.017Z,103.10
2018-03-16T06:27:21.955Z,97.40
2018-03-16T06:28:22.002Z,103.00
2018-03-16T06:29:21.862Z,93.80
2018-03-16T06:30:23.117Z,102.90
2018-03-16T06:31:22.471Z,103.40
2018-03-16T06:32:22.497Z,94.60
2018-03-16T06:33:23.305Z,101.00
2018-03-16T06:34:22.963Z,88.30
2018-03-16T06:35:22.958Z,91.80
2018-03-16T06:36:22.840Z,91.90
2018-03-16T06:37:45.774Z,96.50
2018-03-16T06:38:46.320Z,96.90
2018-03-16T06:39:45.946Z,95.00
2018-03-16T06:40:46.325Z,99.10
2018-03-16T06:41:45.871Z,99.30
2018-03-16T06:42:46.813Z,100.60
2018-03-16T06:43:46.103Z,98.20
2018-03-16T06:44:46.642Z,89.60
2018-03-16T06:45:46.562Z,102.40
2018-03-16T06:46:46.191Z,105.50
2018-03-16T06:47:46.269Z,107.50
2018-03-16T06:49:07.676Z,121.20
2018-03-16T06:50:08.236Z,109.60
2018-03-16T06:51:08.227Z,112.00
2018-03-16T06:52:08.442Z,109.00
2018-03-16T06:53:09.382Z,108.50
2018-03-16T06:54:31.135Z,114.40
2018-03-16T06:55:54.003Z,107.30
2018-03-16T06:57:18.999Z,115.40
2018-03-16T06:58:19.042Z,124.90
2018-03-16T06:59:17.773Z,119.20
2018-03-16T07:00:18.313Z,112.00
2018-03-16T07:01:18.186Z,109.10
2018-03-16T07:02:17.349Z,106.80
2018-03-16T07:03:18.502Z,116.80
2018-03-16T07:04:18.035Z,123.50
2018-03-16T07:05:17.470Z,124.90
2018-03-16T07:06:17.996Z,127.40
2018-03-16T07:07:20.262Z,123.00
2018-03-16T07:08:39.875Z,125.50
2018-03-16T07:09:40.501Z,121.70
2018-03-16T07:10:39.918Z,125.90
2018-03-16T07:11:40.508Z,123.40
2018-03-16T07:12:40.289Z,132.40
2018-03-16T07:13:39.723Z,124.80
2018-03-16T07:14:40.439Z,127.80
2018-03-16T07:16:38.422Z,131.20
2018-03-16T07:17:39.744Z,124.60
2018-03-16T07:18:38.817Z,125.70
2018-03-16T07:19:39.150Z,130.00
2018-03-16T07:20:39.069Z,131.50
2018-03-16T07:21:39.658Z,138.00
2018-03-16T07:22:38.807Z,123.10
2018-03-16T07:23:38.750Z,124.40
2018-03-16T07:24:38.924Z,123.70
2018-03-16T07:25:38.816Z,125.50
2018-03-16T07:26:39.441Z,130.50
2018-03-16T07:27:39.912Z,123.20
2018-03-16T07:28:38.863Z,129.30
2018-03-16T07:29:40.047Z,129.70
2018-03-16T07:30:39.694Z,127.00
2018-03-16T07:31:39.250Z,130.60
2018-03-16T07:32:39.404Z,128.50
2018-03-16T07:33:38.767Z,124.80
2018-03-16T07:34:39.275Z,134.10
2018-03-16T07:35:38.814Z,122.50
2018-03-16T07:36:39.378Z,120.70
2018-03-16T07:37:39.955Z,119.90
2018-03-16T07:38:39.668Z,112.40
2018-03-16T07:39:39.419Z,115.90
2018-03-16T07:40:38.955Z,114.40
2018-03-16T07:41:39.568Z,118.60
2018-03-16T07:42:39.226Z,120.80
2018-03-16T07:43:39.709Z,114.40
2018-03-16T07:44:39.366Z,122.50
2018-03-16T07:45:39.906Z,129.00
2018-03-16T07:46:39.344Z,120.20
2018-03-16T07:47:39.062Z,123.00
2018-03-16T07:48:39.601Z,119.80
2018-03-16T07:49:39.235Z,125.10
2018-03-16T07:50:39.552Z,134.60
2018-03-16T07:51:39.132Z,143.00
2018-03-16T07:52:39.742Z,146.80
2018-03-16T07:53:38.666Z,118.00
2018-03-16T07:54:38.556Z,135.40
2018-03-16T07:55:38.935Z,138.20
2018-03-16T07:56:38.772Z,138.60
2018-03-16T07:57:39.307Z,144.90
2018-03-16T07:58:39.193Z,146.70
2018-03-16T07:59:39.469Z,144.70
2018-03-16T08:00:38.426Z,138.80
2018-03-16T08:01:38.743Z,138.70
2018-03-16T08:02:38.604Z,150.20
2018-03-16T08:03:39.034Z,156.00
2018-03-16T08:04:39.728Z,159.80
2018-03-16T08:05:39.432Z,165.50
2018-03-16T08:06:39.289Z,161.80
2018-03-16T08:07:38.375Z,168.70
2018-03-16T08:08:39.837Z,160.10
2018-03-16T08:09:38.876Z,156.00
2018-03-16T08:10:39.211Z,166.80
2018-03-16T08:11:39.519Z,162.60
2018-03-16T08:12:38.618Z,164.00
2018-03-16T08:13:39.215Z,187.70
2018-03-16T08:14:40.353Z,180.50
2018-03-16T08:15:39.679Z,178.30
2018-03-16T08:16:39.290Z,176.20
2018-03-16T08:17:39.428Z,181.30
2018-03-16T08:18:38.945Z,193.40
2018-03-16T08:19:39.516Z,193.30
2018-03-16T08:20:38.387Z,199.40
2018-03-16T08:21:39.281Z,202.70
2018-03-16T08:22:39.467Z,196.60
2018-03-16T08:23:39.026Z,207.80
2018-03-16T08:24:39.165Z,217.80
2018-03-16T08:25:40.080Z,227.90
2018-03-16T08:26:39.630Z,211.90
2018-03-16T08:27:39.323Z,224.90
2018-03-16T08:28:39.152Z,215.20
2018-03-16T08:29:40.039Z,210.40
2018-03-16T08:30:39.646Z,229.30
2018-03-16T08:31:39.247Z,226.00
2018-03-16T08:32:39.107Z,230.40
2018-03-16T08:33:39.984Z,220.00
2018-03-16T08:34:39.584Z,239.60
2018-03-16T08:35:38.896Z,230.70
2018-03-16T08:36:39.394Z,225.70
2018-03-16T08:37:39.846Z,230.50
2018-03-16T08:38:39.502Z,229.60
2018-03-16T08:40:01.761Z,238.20
2018-03-16T08:41:02.303Z,244.70
2018-03-16T08:42:03.190Z,229.30
2018-03-16T08:43:02.484Z,222.60
2018-03-16T08:44:03.010Z,222.80
2018-03-16T08:45:02.617Z,206.80
2018-03-16T08:46:03.126Z,199.60
2018-03-16T08:47:03.041Z,202.20
2018-03-16T08:48:02.808Z,203.10
2018-03-16T08:49:02.409Z,201.30
2018-03-16T08:50:02.684Z,222.40
2018-03-16T08:51:01.777Z,215.30
2018-03-16T08:52:03.065Z,202.70
2018-03-16T08:53:02.068Z,200.50
2018-03-16T08:54:02.554Z,198.00
2018-03-16T08:55:02.662Z,197.80
2018-03-16T08:56:02.589Z,202.20
2018-03-16T08:57:02.250Z,201.40
2018-03-16T08:58:02.851Z,187.70
2018-03-16T08:59:02.351Z,199.00
2018-03-16T09:00:02.836Z,203.00
2018-03-16T09:01:02.450Z,192.00
2018-03-16T09:02:02.585Z,185.80
2018-03-16T09:03:46.260Z,174.90
2018-03-16T09:04:46.855Z,166.80
2018-03-16T09:05:47.448Z,164.50
2018-03-16T09:06:47.205Z,168.40
2018-03-16T09:07:47.070Z,171.70
2018-03-16T09:08:46.763Z,156.30
2018-03-16T09:09:47.899Z,150.30
2018-03-16T09:10:47.346Z,143.00
2018-03-16T09:11:46.685Z,155.20
2018-03-16T09:12:47.111Z,151.20
2018-03-16T09:13:46.315Z,138.50
2018-03-16T09:14:46.709Z,122.20
2018-03-16T09:16:09.293Z,117.20
2018-03-16T09:17:32.424Z,107.30
2018-03-16T09:18:32.783Z,105.50
2018-03-16T09:19:55.200Z,108.90
2018-03-16T09:20:56.336Z,111.40
2018-03-16T09:21:56.536Z,98.20
2018-03-16T09:22:55.496Z,94.80
2018-03-16T09:23:56.191Z,91.00
2018-03-16T09:24:56.067Z,101.80
2018-03-16T09:25:56.641Z,97.20
2018-03-16T09:26:56.396Z,101.00
2018-03-16T09:27:55.753Z,92.00
2018-03-16T09:28:56.118Z,90.20
2018-03-16T09:29:55.563Z,84.60
2018-03-16T09:30:55.456Z,87.10
2018-03-16T09:31:56.011Z,85.40
2018-03-16T09:33:40.042Z,80.10
2018-03-16T09:34:40.507Z,64.80
2018-03-16T09:35:40.799Z,74.20
2018-03-16T09:36:40.710Z,66.90
2018-03-16T09:37:41.332Z,57.70
2018-03-16T09:38:40.330Z,65.30
2018-03-16T09:39:40.648Z,67.20
2018-03-16T09:41:25.817Z,68.40
2018-03-16T09:42:26.111Z,58.80
2018-03-16T09:43:26.584Z,54.30
2018-03-16T09:44:26.361Z,59.10
2018-03-16T09:46:09.479Z,54.60
2018-03-16T09:47:31.208Z,50.90
2018-03-16T09:48:31.762Z,53.50
2018-03-16T09:49:54.216Z,56.90
2018-03-16T09:50:54.797Z,60.60
2018-03-16T09:51:54.287Z,55.60
2018-03-16T09:52:54.850Z,47.10
2018-03-16T09:53:54.195Z,51.30
2018-03-16T09:54:54.602Z,55.80
2018-03-16T09:56:25.068Z,52.80
2018-03-16T09:57:17.567Z,60.00
2018-03-16T09:58:40.550Z,55.20
2018-03-16T09:59:41.022Z,56.80
2018-03-16T10:01:02.344Z,55.00
2018-03-16T10:02:03.257Z,50.50
2018-03-16T10:03:25.854Z,49.90
2018-03-16T10:04:26.824Z,40.60
2018-03-16T10:05:48.063Z,39.30
2018-03-16T10:07:10.128Z,40.20
2018-03-16T10:08:10.622Z,43.10
2018-03-16T10:09:10.831Z,43.30
2018-03-16T10:10:34.360Z,41.30
2018-03-16T10:11:34.294Z,39.80
2018-03-16T10:12:34.957Z,33.50
2018-03-16T10:13:34.661Z,39.40
2018-03-16T10:14:56.732Z,38.20
2018-03-16T10:15:57.551Z,37.80
2018-03-16T10:16:57.364Z,36.00
2018-03-16T10:17:57.628Z,34.60
2018-03-16T10:20:03.002Z,36.10
2018-03-16T10:21:03.684Z,35.60
2018-03-16T10:22:03.480Z,33.00
2018-03-16T10:23:02.991Z,35.90
2018-03-16T10:24:03.674Z,35.80
2018-03-16T10:25:03.314Z,30.20
2018-03-16T10:26:03.979Z,35.00
2018-03-16T10:27:03.251Z,35.30
2018-03-16T10:28:03.907Z,38.30
2018-03-16T10:29:03.633Z,32.30
2018-03-16T10:30:03.168Z,42.50
2018-03-16T10:31:04.111Z,38.80
2018-03-16T10:32:03.960Z,33.10
2018-03-16T10:33:03.453Z,35.60
2018-03-16T10:34:03.048Z,32.70
2018-03-16T10:35:03.538Z,34.90
2018-03-16T10:36:03.020Z,33.70
2018-03-16T10:37:03.386Z,36.50
2018-03-16T10:38:03.543Z,35.80
2018-03-16T10:39:05.423Z,35.20
2018-03-16T10:40:03.932Z,33.90
2018-03-16T10:41:03.050Z,33.40
2018-03-16T10:42:03.037Z,33.40
2018-03-16T10:43:03.453Z,32.30
2018-03-16T10:44:48.240Z,31.30
2018-03-16T10:45:48.407Z,32.80
2018-03-16T10:46:48.590Z,34.70
2018-03-16T10:47:48.913Z,35.80
2018-03-16T10:48:49.449Z,28.60
2018-03-16T10:49:48.682Z,33.00
2018-03-16T10:50:49.319Z,29.10
2018-03-16T10:51:48.924Z,34.30
2018-03-16T10:52:50.198Z,34.10
2018-03-16T10:53:48.198Z,34.80
2018-03-16T10:54:48.948Z,37.70
2018-03-16T10:55:49.154Z,34.80
2018-03-16T10:56:48.700Z,34.30
2018-03-16T10:57:49.709Z,36.40
2018-03-16T10:58:49.483Z,37.80
2018-03-16T10:59:48.939Z,32.80
2018-03-16T11:00:49.010Z,31.90
2018-03-16T11:01:48.874Z,32.50
2018-03-16T11:03:11.492Z,28.00
2018-03-16T11:04:12.056Z,32.10
2018-03-16T11:05:11.728Z,31.90
2018-03-16T11:06:12.295Z,29.80
2018-03-16T11:07:11.185Z,30.90
2018-03-16T11:08:11.281Z,31.00
2018-03-16T11:09:11.720Z,35.50
2018-03-16T11:10:12.198Z,35.30
2018-03-16T11:11:33.511Z,36.50
2018-03-16T11:12:34.316Z,31.40
2018-03-16T11:13:34.111Z,33.90
2018-03-16T11:14:34.720Z,32.10
2018-03-16T11:15:34.585Z,33.50
2018-03-16T11:16:34.129Z,34.20
2018-03-16T11:17:35.107Z,33.30
2018-03-16T11:18:34.681Z,33.10
2018-03-16T11:19:55.809Z,34.90
2018-03-16T11:21:18.599Z,32.70
2018-03-16T11:22:19.374Z,34.20
2018-03-16T11:23:18.665Z,32.80
2018-03-16T11:24:19.249Z,30.20
2018-03-16T11:25:18.536Z,35.70
2018-03-16T11:26:20.048Z,31.70
2018-03-16T11:27:41.975Z,33.40
2018-03-16T11:28:42.890Z,34.00
2018-03-16T11:29:42.424Z,35.70
2018-03-16T11:30:42.476Z,35.90
2018-03-16T11:31:43.122Z,30.80
2018-03-16T11:32:42.276Z,30.80
2018-03-16T11:33:42.616Z,32.80
2018-03-16T11:35:05.155Z,37.70
2018-03-16T11:36:05.200Z,29.70
2018-03-16T11:37:06.253Z,34.10
2018-03-16T11:38:05.368Z,30.40
2018-03-16T11:39:28.390Z,32.40
2018-03-16T11:40:27.687Z,34.80
2018-03-16T11:41:27.902Z,32.00
2018-03-16T11:42:50.184Z,32.70
2018-03-16T11:43:50.703Z,31.70
2018-03-16T11:44:51.378Z,32.70
2018-03-16T11:45:51.232Z,37.60
2018-03-16T11:46:50.380Z,37.60
2018-03-16T11:48:12.831Z,37.10
2018-03-16T11:49:13.341Z,37.60
2018-03-16T11:50:13.040Z,39.80
2018-03-16T11:51:13.457Z,35.90
2018-03-16T11:52:12.460Z,36.90
2018-03-16T11:53:13.011Z,34.80
2018-03-16T11:54:13.359Z,36.50
2018-03-16T11:55:34.660Z,32.40
2018-03-16T11:56:35.327Z,30.70
2018-03-16T11:57:57.373Z,36.40
2018-03-16T11:58:57.396Z,32.60
2018-03-16T11:59:58.008Z,32.50
2018-03-16T12:00:57.355Z,29.60
2018-03-16T12:01:58.599Z,33.10
2018-03-16T12:03:54.627Z,0.00
2018-03-16T12:04:53.964Z,26.60
2018-03-16T12:05:53.507Z,30.40
2018-03-16T12:06:52.484Z,25.30
2018-03-16T12:07:53.188Z,25.90
2018-03-16T12:08:53.669Z,24.00
2018-03-16T12:09:53.190Z,26.60
2018-03-16T12:10:52.964Z,26.30
2018-03-16T12:11:53.627Z,28.70
2018-03-16T12:12:53.765Z,29.80
2018-03-16T12:13:53.468Z,32.10
2018-03-16T12:14:52.958Z,30.90
2018-03-16T12:16:15.884Z,28.50
2018-03-16T12:17:16.536Z,29.20
2018-03-16T12:18:17.104Z,27.80
2018-03-16T12:19:16.263Z,29.80
2018-03-16T12:20:39.140Z,26.60
2018-03-16T12:21:39.733Z,27.00
2018-03-16T12:22:39.903Z,28.70
2018-03-16T12:23:39.847Z,33.40
2018-03-16T12:24:39.485Z,28.60
2018-03-16T12:25:40.088Z,27.80
2018-03-16T12:26:39.541Z,26.80
2018-03-16T12:27:39.524Z,29.50
2018-03-16T12:28:49.753Z,26.40
2018-03-16T12:29:07.694Z,27.50
2018-03-16T12:30:08.210Z,28.10
2018-03-16T12:31:07.683Z,29.80
2018-03-16T12:32:08.189Z,28.60
2018-03-16T12:33:07.482Z,28.70
2018-03-16T12:34:07.893Z,23.40
2018-03-16T12:35:08.220Z,22.30
2018-03-16T12:36:07.721Z,27.10
2018-03-16T12:37:08.074Z,24.70
2018-03-16T12:38:08.560Z,28.60
2018-03-16T12:39:08.255Z,24.60
2018-03-16T12:40:07.927Z,25.30
2018-03-16T12:41:08.584Z,25.60
2018-03-16T12:42:08.065Z,25.00
2018-03-16T12:43:07.525Z,27.60
2018-03-16T12:44:08.815Z,26.90
2018-03-16T12:45:08.288Z,24.50
2018-03-16T12:46:08.327Z,25.30
2018-03-16T12:47:07.642Z,23.50
2018-03-16T12:48:08.441Z,23.50
2018-03-16T12:49:08.294Z,25.90
2018-03-16T12:50:07.866Z,30.10
2018-03-16T12:51:08.495Z,28.70
2018-03-16T12:52:08.335Z,28.20
2018-03-16T12:53:07.760Z,24.00
2018-03-16T12:54:08.852Z,28.70
2018-03-16T12:55:08.330Z,27.00
2018-03-16T12:56:07.989Z,27.00
2018-03-16T12:57:07.689Z,29.90
2018-03-16T12:58:08.263Z,27.80
2018-03-16T12:59:08.085Z,27.70
2018-03-16T13:00:08.553Z,31.90
2018-03-16T13:01:07.936Z,27.90
2018-03-16T13:02:29.150Z,25.90
2018-03-16T13:03:29.684Z,27.60
2018-03-16T13:04:30.287Z,24.40
2018-03-16T13:05:30.314Z,25.90
2018-03-16T13:06:30.056Z,25.30
2018-03-16T13:07:29.691Z,25.00
2018-03-16T13:08:30.485Z,26.00
2018-03-16T13:09:29.964Z,27.60
2018-03-16T13:10:30.804Z,24.60
2018-03-16T13:11:29.566Z,27.50
2018-03-16T13:12:30.444Z,30.20
2018-03-16T13:13:30.436Z,31.00
2018-03-16T13:14:30.029Z,28.20
2018-03-16T13:15:51.828Z,31.70
2018-03-16T13:16:52.492Z,30.10
2018-03-16T13:17:52.089Z,31.40
2018-03-16T13:18:54.023Z,31.50
2018-03-16T13:19:52.571Z,35.10
2018-03-16T13:20:52.168Z,33.80
2018-03-16T13:21:52.512Z,36.60
2018-03-16T13:23:13.311Z,33.80